createdAt,value
2022-12-15T00:00:56.442Z,0.15
2022-12-15T00:03:47.377Z,0.15
2022-12-15T00:06:34.987Z,0.16
2022-12-15T00:09:30.679Z,0.18
2022-12-15T00:12:19.803Z,0.18
2022-12-15T00:15:08.274Z,0.17
2022-12-15T00:17:56.286Z,0.18
2022-12-15T00:20:44.752Z,0.16
2022-12-15T00:23:32.549Z,0.14
2022-12-15T00:26:20.499Z,0.15
2022-12-15T00:29:08.043Z,0.16
2022-12-15T00:31:56.464Z,0.17
2022-12-15T00:34:45.183Z,0.16
2022-12-15T00:37:33.473Z,0.17
2022-12-15T00:40:05.545Z,0.16
2022-12-15T00:42:36.986Z,0.13
2022-12-15T00:45:07.192Z,0.14
2022-12-15T00:47:38.342Z,0.15
2022-12-15T00:50:28.247Z,0.13
2022-12-15T00:53:16.910Z,0.13
2022-12-15T00:56:06.596Z,0.12
2022-12-15T00:58:56.545Z,0.09
2022-12-15T01:01:45.920Z,0.07
2022-12-15T01:04:38.703Z,0.08
2022-12-15T01:07:28.207Z,0.08
2022-12-15T01:10:17.645Z,0.07
2022-12-15T01:13:06.910Z,0.08
2022-12-15T01:15:59.745Z,0.08
2022-12-15T01:18:49.618Z,0.10
2022-12-15T01:21:24.295Z,0.13
2022-12-15T01:23:56.193Z,0.14
2022-12-15T01:26:26.434Z,0.16
2022-12-15T01:28:56.048Z,0.13
2022-12-15T01:31:26.253Z,0.10
2022-12-15T01:33:57.954Z,0.08
2022-12-15T01:36:27.925Z,0.07
2022-12-15T01:38:58.405Z,0.08
2022-12-15T01:41:30.410Z,0.09
2022-12-15T01:44:23.146Z,0.11
2022-12-15T01:46:58.695Z,0.13
2022-12-15T01:49:32.575Z,0.17
2022-12-15T01:52:09.549Z,0.19
2022-12-15T01:54:51.237Z,0.21
2022-12-15T01:57:28.746Z,0.22
2022-12-15T02:00:02.493Z,0.22
2022-12-15T02:02:39.927Z,0.24
2022-12-15T02:05:10.920Z,0.24
2022-12-15T02:07:40.995Z,0.25
2022-12-15T02:10:12.760Z,0.24
2022-12-15T02:12:50.518Z,0.25
2022-12-15T02:15:32.356Z,0.26
2022-12-15T02:18:35.167Z,0.27
2022-12-15T02:21:12.013Z,0.27
2022-12-15T02:23:51.350Z,0.26
2022-12-15T02:26:57.585Z,0.27
2022-12-15T02:29:49.916Z,0.25
2022-12-15T02:32:32.971Z,0.23
2022-12-15T02:35:10.881Z,0.22
2022-12-15T02:37:42.421Z,0.24
2022-12-15T02:40:12.493Z,0.24
2022-12-15T02:42:50.315Z,0.25
2022-12-15T02:45:25.359Z,0.27
2022-12-15T02:48:24.208Z,0.28
2022-12-15T02:51:28.223Z,0.30
2022-12-15T02:54:20.281Z,0.30
2022-12-15T02:57:21.913Z,0.30
2022-12-15T03:00:02.718Z,0.31
2022-12-15T03:02:35.123Z,0.30
2022-12-15T03:05:06.054Z,0.31
2022-12-15T03:07:36.916Z,0.29
2022-12-15T03:10:07.676Z,0.27
2022-12-15T03:12:36.911Z,0.26
2022-12-15T03:15:06.439Z,0.26
2022-12-15T03:17:36.896Z,0.26
2022-12-15T03:20:09.318Z,0.25
2022-12-15T03:22:38.988Z,0.20
2022-12-15T03:25:09.214Z,0.19
2022-12-15T03:27:39.611Z,0.19
2022-12-15T03:30:10.086Z,0.20
2022-12-15T03:32:40.203Z,0.22
2022-12-15T03:35:10.557Z,0.23
2022-12-15T03:37:40.912Z,0.20
2022-12-15T03:40:12.318Z,0.10
2022-12-15T03:42:51.743Z,0.06
2022-12-15T03:45:24.811Z,0.03
2022-12-15T03:47:55.046Z,0.03
2022-12-15T03:50:27.725Z,0.04
2022-12-15T03:53:00.240Z,0.05
2022-12-15T03:55:31.212Z,0.06
2022-12-15T03:58:01.252Z,0.07
2022-12-15T04:00:30.858Z,0.09
2022-12-15T04:03:00.161Z,0.12
2022-12-15T04:05:31.997Z,0.14
2022-12-15T04:08:03.286Z,0.17
2022-12-15T04:10:35.238Z,0.20
2022-12-15T04:13:08.521Z,0.20
2022-12-15T04:15:40.265Z,0.20
2022-12-15T04:18:11.109Z,0.18
2022-12-15T04:20:41.532Z,0.15
2022-12-15T04:23:10.505Z,0.13
2022-12-15T04:25:57.933Z,0.12
2022-12-15T04:28:46.086Z,0.10
2022-12-15T04:31:39.333Z,0.07
2022-12-15T04:34:34.240Z,0.07
2022-12-15T04:37:21.955Z,0.08
2022-12-15T04:40:12.359Z,0.07
2022-12-15T04:43:06.142Z,0.09
2022-12-15T04:45:54.233Z,0.11
2022-12-15T04:48:42.925Z,0.15
2022-12-15T04:51:30.660Z,0.16
2022-12-15T04:54:18.797Z,0.17
2022-12-15T04:57:06.437Z,0.15
2022-12-15T04:59:53.750Z,0.15
2022-12-15T05:02:41.659Z,0.15
2022-12-15T05:05:29.941Z,0.16
2022-12-15T05:08:18.284Z,0.18
2022-12-15T05:11:06.127Z,0.20
2022-12-15T05:13:53.533Z,0.21
2022-12-15T05:16:42.456Z,0.21
2022-12-15T05:19:30.125Z,0.23
2022-12-15T05:22:17.772Z,0.23
2022-12-15T05:25:05.385Z,0.24
2022-12-15T05:27:53.125Z,0.23
2022-12-15T05:30:41.437Z,0.25
2022-12-15T05:33:10.868Z,0.25
2022-12-15T05:35:39.964Z,0.24
2022-12-15T05:38:08.720Z,0.23
2022-12-15T05:40:38.477Z,0.24
2022-12-15T05:43:07.249Z,0.27
2022-12-15T05:45:36.237Z,0.28
2022-12-15T05:48:05.942Z,0.31
2022-12-15T05:50:34.635Z,0.36
2022-12-15T05:53:03.952Z,0.36
2022-12-15T05:55:33.245Z,0.40
2022-12-15T05:58:01.918Z,0.42
2022-12-15T06:00:30.773Z,0.45
2022-12-15T06:03:00.501Z,0.47
2022-12-15T06:05:29.621Z,0.50
2022-12-15T06:08:00.554Z,0.52
2022-12-15T06:10:29.333Z,0.52
2022-12-15T06:12:57.922Z,0.51
2022-12-15T06:15:27.069Z,0.48
2022-12-15T06:17:56.631Z,0.44
2022-12-15T06:20:25.201Z,0.40
2022-12-15T06:22:54.411Z,0.37
2022-12-15T06:25:23.189Z,0.36
2022-12-15T06:27:55.772Z,0.36
2022-12-15T06:30:27.327Z,0.37
2022-12-15T06:32:56.112Z,0.39
2022-12-15T06:35:24.904Z,0.41
2022-12-15T06:37:54.092Z,0.43
2022-12-15T06:40:22.882Z,0.42
2022-12-15T06:42:51.566Z,0.41
2022-12-15T06:45:20.251Z,0.42
2022-12-15T06:47:49.452Z,0.43
2022-12-15T06:50:18.448Z,0.45
2022-12-15T06:52:47.540Z,0.48
2022-12-15T06:55:16.220Z,0.53
2022-12-15T06:57:48.282Z,0.57
2022-12-15T07:00:17.272Z,0.59
2022-12-15T07:02:50.126Z,0.62
2022-12-15T07:05:19.670Z,0.63
2022-12-15T07:07:49.067Z,0.61
2022-12-15T07:10:18.280Z,0.60
2022-12-15T07:12:47.474Z,0.58
2022-12-15T07:15:17.290Z,0.59
2022-12-15T07:17:45.967Z,0.58
2022-12-15T07:20:14.648Z,0.60
2022-12-15T07:22:43.333Z,0.66
2022-12-15T07:25:12.329Z,0.71
2022-12-15T07:27:41.531Z,0.80
2022-12-15T07:30:11.442Z,0.92
2022-12-15T07:32:40.435Z,1.04
2022-12-15T07:35:10.250Z,1.16
2022-12-15T07:37:39.130Z,1.32
2022-12-15T07:40:09.039Z,1.53
2022-12-15T07:42:38.058Z,1.74
2022-12-15T07:45:07.755Z,1.90
2022-12-15T07:47:36.336Z,2.04
2022-12-15T07:50:05.433Z,2.11
2022-12-15T07:52:34.324Z,2.17
2022-12-15T07:55:03.004Z,2.25
2022-12-15T07:57:33.051Z,2.28
2022-12-15T08:00:05.800Z,2.31
2022-12-15T08:02:42.316Z,2.29
2022-12-15T08:05:11.483Z,2.29
2022-12-15T08:07:40.250Z,2.34
2022-12-15T08:10:09.760Z,2.36
2022-12-15T08:12:38.555Z,2.40
2022-12-15T08:15:08.098Z,2.41
2022-12-15T08:17:36.644Z,2.43
2022-12-15T08:20:09.910Z,2.43
2022-12-15T08:22:39.023Z,2.40
2022-12-15T08:25:08.229Z,2.34
2022-12-15T08:27:36.781Z,2.32
2022-12-15T08:30:06.411Z,2.29
2022-12-15T08:32:34.996Z,2.22
2022-12-15T08:35:03.985Z,2.23
2022-12-15T08:37:32.677Z,2.26
2022-12-15T08:40:03.332Z,2.31
2022-12-15T08:42:36.288Z,2.35
2022-12-15T08:45:06.190Z,2.36
2022-12-15T08:47:34.787Z,2.40
2022-12-15T08:50:03.680Z,2.43
2022-12-15T08:52:32.474Z,2.47
2022-12-15T08:55:01.360Z,2.52
2022-12-15T08:57:30.054Z,2.59
2022-12-15T08:59:59.448Z,2.67
2022-12-15T09:02:28.296Z,2.73
2022-12-15T09:04:57.433Z,2.80
2022-12-15T09:07:26.629Z,2.85
2022-12-15T09:09:55.724Z,2.92
2022-12-15T09:12:24.510Z,2.97
2022-12-15T09:14:53.197Z,3.04
2022-12-15T09:17:21.919Z,3.10
2022-12-15T09:19:50.771Z,3.13
2022-12-15T09:22:19.865Z,3.16
2022-12-15T09:24:49.170Z,3.18
2022-12-15T09:27:18.165Z,3.22
2022-12-15T09:29:46.945Z,3.25
2022-12-15T09:32:15.632Z,3.27
2022-12-15T09:34:44.519Z,3.28
2022-12-15T09:37:13.721Z,3.34
2022-12-15T09:39:42.411Z,3.36
2022-12-15T09:42:29.631Z,3.42
2022-12-15T09:45:06.093Z,3.44
2022-12-15T09:48:09.288Z,3.52
2022-12-15T09:50:40.097Z,3.54
2022-12-15T09:53:45.597Z,3.60
2022-12-15T09:56:19.683Z,3.69
2022-12-15T09:58:51.034Z,3.76
2022-12-15T10:01:39.127Z,3.84
2022-12-15T10:04:34.443Z,3.87
2022-12-15T10:07:36.166Z,3.90
2022-12-15T10:10:21.617Z,3.84
2022-12-15T10:13:01.775Z,3.84
2022-12-15T10:15:45.883Z,3.90
2022-12-15T10:18:26.995Z,3.92
2022-12-15T10:21:02.397Z,3.99
2022-12-15T10:23:37.090Z,4.10
2022-12-15T10:26:26.027Z,4.15
2022-12-15T10:29:30.109Z,4.21
2022-12-15T10:32:05.634Z,4.18
2022-12-15T10:34:38.334Z,4.25
2022-12-15T10:37:14.017Z,4.34
2022-12-15T10:39:45.792Z,4.42
2022-12-15T10:42:26.766Z,4.53
2022-12-15T10:44:57.996Z,4.57
2022-12-15T10:47:29.539Z,4.54
2022-12-15T10:53:40.341Z,4.58
2022-12-15T10:56:09.741Z,4.57
2022-12-15T10:58:52.047Z,4.63
2022-12-15T11:01:32.935Z,4.64
2022-12-15T11:04:01.855Z,4.71
2022-12-15T11:06:33.479Z,4.70
2022-12-15T11:09:21.805Z,4.69
2022-12-15T11:12:12.360Z,4.68
2022-12-15T11:14:51.617Z,4.61
2022-12-15T11:17:23.299Z,4.70
2022-12-15T11:20:21.783Z,4.57
2022-12-15T11:23:01.016Z,4.67
2022-12-15T11:25:39.019Z,4.63
2022-12-15T11:28:19.992Z,4.65
2022-12-15T11:31:04.036Z,4.75
2022-12-15T11:33:33.320Z,4.87
2022-12-15T11:36:17.685Z,5.04
2022-12-15T11:39:32.355Z,5.30
2022-12-15T11:42:06.255Z,5.65
2022-12-15T11:45:01.262Z,6.04
2022-12-15T11:47:49.408Z,6.54
2022-12-15T11:50:44.716Z,7.45
2022-12-15T11:53:41.764Z,8.94
2022-12-15T11:56:32.676Z,10.13
2022-12-15T11:59:19.495Z,11.08
2022-12-15T12:02:25.947Z,11.81
2022-12-15T12:05:42.775Z,12.68
2022-12-15T12:08:17.296Z,12.55
2022-12-15T12:11:01.183Z,12.57
2022-12-15T12:13:50.292Z,13.45
2022-12-15T12:16:46.215Z,14.34
2022-12-15T12:19:28.036Z,15.51
2022-12-15T12:22:04.068Z,16.24
2022-12-15T12:24:40.444Z,15.89
2022-12-15T12:27:39.838Z,15.43
2022-12-15T12:30:15.808Z,15.73
2022-12-15T12:33:03.014Z,16.17
2022-12-15T12:35:41.636Z,15.99
2022-12-15T12:38:12.281Z,16.34
2022-12-15T12:40:41.029Z,16.04
2022-12-15T12:43:14.208Z,15.94
2022-12-15T12:45:54.511Z,16.81
2022-12-15T12:48:35.167Z,16.88
2022-12-15T12:51:28.120Z,16.70
2022-12-15T12:53:58.857Z,17.04
2022-12-15T12:56:38.399Z,16.28
2022-12-15T12:59:29.527Z,16.29
2022-12-15T13:02:31.597Z,16.53
2022-12-15T13:05:24.395Z,16.55
2022-12-15T13:08:17.277Z,16.96
2022-12-15T13:10:48.122Z,17.12
2022-12-15T13:13:29.349Z,17.02
2022-12-15T13:16:13.439Z,17.12
2022-12-15T13:19:03.811Z,16.97
2022-12-15T13:21:45.316Z,16.47
2022-12-15T13:24:46.569Z,16.18
2022-12-15T13:27:20.187Z,16.02
2022-12-15T13:30:16.304Z,16.06
2022-12-15T13:32:53.492Z,16.00
2022-12-15T13:35:34.864Z,15.80
2022-12-15T13:38:04.646Z,15.64
2022-12-15T13:40:52.227Z,15.35
2022-12-15T13:43:26.733Z,15.08
2022-12-15T13:46:03.536Z,15.53
2022-12-15T13:48:39.428Z,15.55
2022-12-15T13:51:43.298Z,15.67
2022-12-15T13:54:19.825Z,15.38
2022-12-15T13:57:13.387Z,14.68
2022-12-15T13:59:51.000Z,13.99
2022-12-15T14:02:28.391Z,13.97
2022-12-15T14:05:12.231Z,13.89
2022-12-15T14:07:54.809Z,13.54
2022-12-15T14:10:44.209Z,12.98
2022-12-15T14:13:20.070Z,12.48
2022-12-15T14:16:04.457Z,12.28
2022-12-15T14:18:39.469Z,11.52
2022-12-15T14:21:20.325Z,11.00
2022-12-15T14:26:38.690Z,9.59
2022-12-15T14:29:07.375Z,8.94
2022-12-15T14:31:37.766Z,8.40
2022-12-15T14:34:15.700Z,7.64
2022-12-15T14:36:46.232Z,7.08
2022-12-15T14:39:42.069Z,6.52
2022-12-15T14:42:20.113Z,5.82
2022-12-15T14:44:51.397Z,5.29
2022-12-15T14:47:36.064Z,4.88
2022-12-15T14:50:10.393Z,4.44
2022-12-15T14:52:44.695Z,4.07
2022-12-15T14:55:31.922Z,3.77
2022-12-15T14:58:01.839Z,3.51
2022-12-15T15:00:34.822Z,3.31
2022-12-15T15:03:10.317Z,4.59
2022-12-15T15:03:14.309Z,10.27
2022-12-15T15:03:20.106Z,3.13
2022-12-15T15:05:55.152Z,2.94
2022-12-15T15:08:35.852Z,2.80
2022-12-15T15:11:36.260Z,2.66
2022-12-15T15:14:43.479Z,2.52
2022-12-15T15:17:17.234Z,2.43
2022-12-15T15:19:57.691Z,2.35
2022-12-15T15:22:42.134Z,2.25
2022-12-15T15:25:41.717Z,2.14
2022-12-15T15:28:35.838Z,2.02
2022-12-15T15:31:40.399Z,1.90
2022-12-15T15:34:11.699Z,1.79
2022-12-15T15:36:41.202Z,1.71
2022-12-15T15:39:14.294Z,1.63
2022-12-15T15:41:43.183Z,1.55
2022-12-15T15:44:14.882Z,1.45
2022-12-15T15:46:52.327Z,1.37
2022-12-15T15:49:24.646Z,1.34
2022-12-15T15:51:56.256Z,1.34
2022-12-15T15:54:29.449Z,1.34
2022-12-15T15:56:58.032Z,1.36
2022-12-15T15:59:27.226Z,1.37
2022-12-15T16:01:56.287Z,1.36
2022-12-15T16:04:25.519Z,1.33
2022-12-15T16:06:54.411Z,1.30
2022-12-15T16:09:25.117Z,1.26
2022-12-15T16:11:54.033Z,1.20
2022-12-15T16:14:22.615Z,1.11
2022-12-15T16:16:54.169Z,1.02
2022-12-15T16:19:24.185Z,0.94
2022-12-15T16:21:53.483Z,0.88
2022-12-15T16:24:22.068Z,0.82
2022-12-15T16:26:51.373Z,0.78
2022-12-15T16:29:22.085Z,0.72
2022-12-15T16:31:50.598Z,0.68
2022-12-15T16:34:24.928Z,0.60
2022-12-15T16:36:53.376Z,0.52
2022-12-15T16:39:27.491Z,0.44
2022-12-15T16:41:56.902Z,0.35
2022-12-15T16:44:27.220Z,0.28
2022-12-15T16:46:55.945Z,0.22
2022-12-15T16:49:25.511Z,0.17
2022-12-15T16:51:54.612Z,0.12
2022-12-15T16:54:26.468Z,0.06
2022-12-15T16:56:57.681Z,0.02
2022-12-15T16:59:35.663Z,-0.03
2022-12-15T17:02:39.635Z,-0.06
2022-12-15T17:05:09.643Z,-0.07
2022-12-15T17:07:39.451Z,-0.03
2022-12-15T17:10:08.451Z,0.01
2022-12-15T17:12:37.545Z,0.04
2022-12-15T17:15:24.148Z,0.09
2022-12-15T17:17:54.861Z,0.13
2022-12-15T17:20:29.406Z,0.18
2022-12-15T17:23:05.090Z,0.23
2022-12-15T17:28:33.569Z,0.40
2022-12-15T17:31:02.481Z,0.49
2022-12-15T17:33:34.065Z,0.56
2022-12-15T17:36:15.891Z,0.65
2022-12-15T17:38:44.580Z,0.74
2022-12-15T17:41:34.979Z,0.86
2022-12-15T17:44:31.777Z,0.99
2022-12-15T17:46:54.736Z,1.12
2022-12-15T17:49:23.353Z,1.19
2022-12-15T17:51:51.833Z,1.26
2022-12-15T17:54:20.630Z,1.36
2022-12-15T17:56:50.231Z,1.42
2022-12-15T17:59:20.755Z,1.50
2022-12-15T18:01:49.421Z,1.57
2022-12-15T18:04:18.052Z,1.66
2022-12-15T18:06:47.016Z,1.74
2022-12-15T18:09:17.751Z,1.86
2022-12-15T18:11:47.152Z,1.96
2022-12-15T18:14:19.731Z,2.05
2022-12-15T18:16:48.656Z,2.15
2022-12-15T18:19:17.306Z,2.22
2022-12-15T18:21:45.890Z,2.31
2022-12-15T18:24:17.595Z,2.40
2022-12-15T18:26:46.127Z,2.45
2022-12-15T18:29:18.333Z,2.48
2022-12-15T18:31:48.614Z,2.53
2022-12-15T18:34:18.329Z,2.57
2022-12-15T18:36:47.422Z,2.60
2022-12-15T18:39:26.069Z,2.64
2022-12-15T18:41:55.133Z,2.69
2022-12-15T18:44:29.245Z,2.73
2022-12-15T18:46:57.794Z,2.78
2022-12-15T18:49:26.516Z,2.82
2022-12-15T18:51:55.099Z,2.88
2022-12-15T18:54:26.550Z,2.93
2022-12-15T18:56:54.983Z,2.99
2022-12-15T18:59:23.614Z,3.06
2022-12-15T19:01:52.466Z,3.13
2022-12-15T19:04:21.292Z,3.17
2022-12-15T19:06:50.490Z,3.20
2022-12-15T19:09:23.476Z,3.24
2022-12-15T19:12:17.937Z,3.27
2022-12-15T19:14:50.258Z,3.28
2022-12-15T19:17:40.327Z,3.30
2022-12-15T19:20:39.317Z,3.31
2022-12-15T19:23:08.106Z,3.34
2022-12-15T19:25:36.901Z,3.34
2022-12-15T19:28:25.954Z,3.35
2022-12-15T19:30:54.541Z,3.35
2022-12-15T19:33:23.224Z,3.37
2022-12-15T19:35:52.324Z,3.36
2022-12-15T19:38:28.175Z,3.36
2022-12-15T19:41:01.171Z,3.32
2022-12-15T19:43:30.010Z,3.28
2022-12-15T19:45:59.081Z,3.27
2022-12-15T19:48:27.932Z,3.24
2022-12-15T19:50:56.726Z,3.22
2022-12-15T19:53:28.701Z,3.20
2022-12-15T19:56:01.725Z,3.19
2022-12-15T19:58:32.176Z,3.18
2022-12-15T20:01:14.868Z,3.17
2022-12-15T20:03:45.732Z,3.16
2022-12-15T20:06:16.174Z,3.16
2022-12-15T20:08:48.137Z,3.15
2022-12-15T20:11:22.460Z,3.14
2022-12-15T20:13:52.060Z,3.14
2022-12-15T20:16:21.773Z,3.12
2022-12-15T20:18:52.832Z,3.09
2022-12-15T20:21:23.082Z,3.05
2022-12-15T20:23:53.559Z,3.00
2022-12-15T20:26:23.065Z,2.95
2022-12-15T20:28:53.295Z,2.91
2022-12-15T20:31:22.725Z,2.86
2022-12-15T20:33:52.093Z,2.80
2022-12-15T20:36:24.814Z,2.74
2022-12-15T20:38:54.486Z,2.69
2022-12-15T20:41:28.020Z,2.65
2022-12-15T20:43:58.131Z,2.59
2022-12-15T20:46:28.589Z,2.58
2022-12-15T20:48:57.220Z,2.56
2022-12-15T20:51:31.639Z,2.54
2022-12-15T20:54:03.129Z,2.53
2022-12-15T20:56:31.977Z,2.53
2022-12-15T20:59:00.458Z,2.52
2022-12-15T21:01:33.652Z,2.50
2022-12-15T21:04:18.510Z,2.49
2022-12-15T21:06:52.820Z,2.49
2022-12-15T21:09:23.967Z,2.49
2022-12-15T21:11:54.667Z,2.48
2022-12-15T21:14:24.740Z,2.47
2022-12-15T21:16:53.500Z,2.47
2022-12-15T21:19:22.985Z,2.46
2022-12-15T21:21:55.115Z,2.43
2022-12-15T21:24:27.413Z,2.42
2022-12-15T21:26:56.554Z,2.39
2022-12-15T21:29:28.127Z,2.36
2022-12-15T21:31:56.577Z,2.33
2022-12-15T21:34:25.263Z,2.30
2022-12-15T21:36:55.229Z,2.29
2022-12-15T21:39:32.875Z,2.29
2022-12-15T21:42:08.726Z,2.30
2022-12-15T21:44:37.415Z,2.30
2022-12-15T21:47:25.951Z,2.30
2022-12-15T21:49:55.111Z,2.28
2022-12-15T21:52:27.548Z,2.25
2022-12-15T21:54:56.329Z,2.22
2022-12-15T21:57:25.019Z,2.16
2022-12-15T21:59:55.396Z,2.12
2022-12-15T22:02:27.527Z,2.05
2022-12-15T22:04:56.392Z,1.99
2022-12-15T22:07:25.280Z,1.93
2022-12-15T22:09:54.170Z,1.87
2022-12-15T22:12:24.907Z,1.80
2022-12-15T22:14:53.598Z,1.72
2022-12-15T22:17:22.893Z,1.64
2022-12-15T22:19:51.580Z,1.56
2022-12-15T22:22:21.406Z,1.49
2022-12-15T22:24:50.175Z,1.43
2022-12-15T22:27:21.802Z,1.39
2022-12-15T22:29:50.943Z,1.35
2022-12-15T22:32:20.129Z,1.34
2022-12-15T22:34:49.031Z,1.29
2022-12-15T22:37:18.004Z,1.27
2022-12-15T22:39:46.907Z,1.23
2022-12-15T22:42:18.151Z,1.17
2022-12-15T22:44:47.222Z,1.05
2022-12-15T22:47:16.035Z,0.91
2022-12-15T22:49:45.434Z,0.81
2022-12-15T22:52:19.618Z,0.73
2022-12-15T22:54:49.046Z,0.66
2022-12-15T22:57:24.296Z,0.59
2022-12-15T23:00:09.327Z,0.54
2022-12-15T23:02:42.628Z,0.47
2022-12-15T23:05:15.379Z,0.42
2022-12-15T23:07:45.330Z,0.37
2022-12-15T23:10:35.737Z,0.34
2022-12-15T23:13:05.969Z,0.30
2022-12-15T23:15:54.627Z,0.28
2022-12-15T23:18:24.540Z,0.22
2022-12-15T23:20:54.722Z,0.15
2022-12-15T23:23:24.501Z,0.08
2022-12-15T23:25:53.780Z,0.03
2022-12-15T23:28:23.371Z,0.00
2022-12-15T23:30:54.725Z,-0.04
2022-12-15T23:33:25.607Z,-0.05
2022-12-15T23:35:56.854Z,-0.07
2022-12-15T23:38:27.071Z,-0.08
2022-12-15T23:40:57.771Z,-0.08
2022-12-15T23:43:28.256Z,-0.09
2022-12-15T23:46:06.003Z,-0.10
2022-12-15T23:48:37.513Z,-0.11
2022-12-15T23:51:11.528Z,-0.13
2022-12-15T23:53:41.456Z,-0.19
2022-12-15T23:56:11.776Z,-0.25
2022-12-15T23:58:41.151Z,-0.30
